Time;durP1;ratioP1;P1;durP2;ratioP2;P2;SDS_P1;SDS_P2;PMS_P1;PMS_P2;Temp;Humidity;BMP_temperature;BMP_pressure;BME280_temperature;BME280_humidity;BME280_pressure;Samples;Min_cycle;Max_cycle;Signal;HPM_P1;HPM_P2
2023/04/17 00:01:35;;;;;;;16.63;10.63;;;;;;;13.36;69.86;94530.66;5030129;28;20042;-79
2023/04/17 00:04:01;;;;;;;15.98;9.63;;;;;;;13.43;69.90;94552.31;5008309;28;20036;-79
2023/04/17 00:06:27;;;;;;;13.18;9.77;;;;;;;13.11;69.92;94487.63;5019048;28;20033;-79
2023/04/17 00:08:53;;;;;;;20.95;10.50;;;;;;;13.35;69.81;94524.56;5008055;28;20058;-79
2023/04/17 00:11:18;;;;;;;16.58;10.15;;;;;;;13.43;69.88;94544.31;5030210;28;20041;-79
2023/04/17 00:13:44;;;;;;;16.67;10.30;;;;;;;13.25;69.96;94516.84;5023722;28;20121;-79
2023/04/17 00:16:11;;;;;;;17.42;9.98;;;;;;;13.11;69.98;94490.28;4999523;28;20041;-79
2023/04/17 00:18:37;;;;;;;26.10;10.95;;;;;;;13.13;70.08;94497.97;5000092;28;20034;-79
2023/04/17 00:21:02;;;;;;;18.38;10.60;;;;;;;13.08;69.89;94490.88;5033142;28;20429;-79
2023/04/17 00:23:28;;;;;;;18.67;10.50;;;;;;;12.83;69.67;94446.28;5037096;28;20052;-79
2023/04/17 00:25:53;;;;;;;15.55;10.05;;;;;;;13.30;69.71;94529.22;5019463;28;20049;-78
2023/04/17 00:28:19;;;;;;;18.10;11.10;;;;;;;12.73;69.37;94434.03;5018291;28;20064;-79
2023/04/17 00:30:45;;;;;;;19.55;10.27;;;;;;;13.03;69.75;94488.34;5036255;28;20030;-79
2023/04/17 00:33:11;;;;;;;19.05;10.75;;;;;;;13.22;69.60;94519.31;5036550;28;20029;-79
2023/04/17 00:35:36;;;;;;;16.92;10.50;;;;;;;13.35;69.53;94534.44;5019269;28;20036;-79
2023/04/17 00:38:02;;;;;;;17.48;10.70;;;;;;;13.05;69.80;94493.34;5011705;28;20038;-78
2023/04/17 00:40:27;;;;;;;20.50;11.73;;;;;;;13.32;69.64;94545.69;4999402;28;20042;-79
2023/04/17 00:42:58;;;;;;;17.65;11.15;;;;;;;13.16;69.49;94525.88;5026452;28;20152;-79
2023/04/17 00:45:24;;;;;;;;;;;;;;;13.27;69.57;94538.63;5019435;28;20041;-78
2023/04/17 00:47:50;;;;;;;17.13;10.02;;;;;;;12.88;69.79;94478.09;5018633;28;19921;-79
2023/04/17 00:50:16;;;;;;;16.85;9.88;;;;;;;13.22;69.67;94530.75;5006421;28;20034;-78
2023/04/17 00:52:44;;;;;;;15.95;9.68;;;;;;;12.77;69.81;94476.75;4997111;28;20183;-78
2023/04/17 00:55:10;;;;;;;15.57;9.60;;;;;;;12.86;69.73;94482.13;5036104;28;20048;-79
2023/04/17 00:57:35;;;;;;;17.30;9.43;;;;;;;13.10;69.63;94525.97;5020675;28;20071;-79
2023/04/17 01:00:01;;;;;;;14.73;9.30;;;;;;;13.16;69.87;94516.00;5022701;28;20033;-79
2023/04/17 01:02:27;;;;;;;17.30;9.43;;;;;;;12.94;69.49;94479.53;5002631;28;20037;-80
2023/04/17 01:04:52;;;;;;;16.88;8.65;;;;;;;12.70;69.62;94441.81;5021160;28;20546;-79
2023/04/17 01:07:18;;;;;;;15.90;9.20;;;;;;;12.84;69.30;94461.16;5004977;28;20172;-79
2023/04/17 01:09:43;;;;;;;16.23;8.85;;;;;;;13.18;69.24;94513.06;5018116;28;20041;-79
2023/04/17 01:12:24;;;;;;;18.42;8.75;;;;;;;13.22;69.16;94517.44;5002028;28;20074;-80
2023/04/17 01:14:54;;;;;;;18.42;8.48;;;;;;;12.88;69.33;94472.78;5002675;28;20042;-79
2023/04/17 01:17:20;;;;;;;14.75;7.63;;;;;;;13.20;69.24;94513.53;4994082;28;20053;-79
2023/04/17 01:19:47;;;;;;;13.50;8.40;;;;;;;13.17;69.48;94517.59;5020011;28;20030;-79
2023/04/17 01:22:15;;;;;;;20.88;9.25;;;;;;;13.06;69.47;94493.06;5020736;28;20038;-79
2023/04/17 01:24:40;;;;;;;13.35;8.65;;;;;;;13.19;69.34;94509.31;5019643;28;20037;-79
2023/04/17 01:27:06;;;;;;;18.98;8.70;;;;;;;12.72;69.44;94439.66;5020498;28;20493;-79
2023/04/17 01:29:33;;;;;;;20.52;10.18;;;;;;;13.05;69.55;94499.47;5039596;28;20044;-79
2023/04/17 01:31:58;;;;;;;14.75;9.40;;;;;;;13.18;69.52;94519.16;5007915;28;20694;-80
2023/04/17 01:34:24;;;;;;;20.35;10.63;;;;;;;12.97;70.48;94518.06;4984358;28;20069;-80
2023/04/17 01:36:49;;;;;;;21.08;10.07;;;;;;;13.02;70.37;94518.72;5017593;28;20073;-80
2023/04/17 01:39:16;;;;;;;17.88;9.93;;;;;;;12.96;69.49;94500.53;5017366;28;20037;-80
2023/04/17 01:41:41;;;;;;;19.52;9.43;;;;;;;13.09;69.92;94519.06;5016650;28;20323;-80
2023/04/17 01:44:07;;;;;;;19.42;9.45;;;;;;;12.56;70.08;94433.13;5017564;28;20041;-80
2023/04/17 01:46:32;;;;;;;18.17;8.90;;;;;;;12.85;69.82;94475.25;5035574;28;20029;-80
2023/04/17 01:48:57;;;;;;;22.02;8.20;;;;;;;12.38;70.09;94402.97;5027594;28;20042;-80
2023/04/17 01:51:23;;;;;;;13.77;7.22;;;;;;;12.50;69.64;94421.06;4997570;28;20037;-80
2023/04/17 01:53:48;;;;;;;17.70;7.82;;;;;;;12.32;69.60;94397.00;4997772;28;20457;-80
2023/04/17 01:56:14;;;;;;;17.27;7.20;;;;;;;12.84;69.34;94476.31;4996783;28;20048;-80
2023/04/17 01:58:39;;;;;;;11.35;6.88;;;;;;;13.04;69.19;94510.44;5027472;28;20033;-80
2023/04/17 02:01:05;;;;;;;14.90;7.00;;;;;;;13.02;69.10;94505.41;5020184;28;20033;-80
2023/04/17 02:03:31;;;;;;;11.57;6.00;;;;;;;12.90;68.93;94485.75;5020527;28;20565;-80
2023/04/17 02:05:57;;;;;;;12.00;6.25;;;;;;;12.48;68.76;94420.56;5020488;28;20063;-80
2023/04/17 02:08:23;;;;;;;15.48;6.45;;;;;;;12.84;69.18;94492.28;5035861;28;20559;-80
2023/04/17 02:10:48;;;;;;;13.73;7.10;;;;;;;12.02;69.58;94384.44;5036801;28;20061;-80
2023/04/17 02:13:14;;;;;;;13.82;7.85;;;;;;;12.44;69.43;94440.84;5035860;28;20120;-80
2023/04/17 02:15:40;;;;;;;17.48;10.38;;;;;;;12.57;70.66;94494.00;5016237;28;20041;-80
2023/04/17 02:18:06;;;;;;;16.20;10.80;;;;;;;12.63;70.68;94489.34;5016531;28;20038;-80
2023/04/17 02:20:32;;;;;;;22.42;12.20;;;;;;;12.54;70.42;94464.56;5030554;28;20485;-80
2023/04/17 02:22:59;;;;;;;20.48;10.45;;;;;;;12.12;72.12;94450.66;4997148;28;20037;-80
2023/04/17 02:25:25;;;;;;;18.15;10.18;;;;;;;12.35;71.95;94478.03;5020317;28;20038;-80
2023/04/17 02:27:50;;;;;;;17.67;10.25;;;;;;;12.58;71.78;94500.13;5009291;28;20042;-80
2023/04/17 02:30:16;;;;;;;16.88;9.95;;;;;;;12.27;71.67;94442.31;5013860;28;20038;-80
2023/04/17 02:32:41;;;;;;;20.05;10.73;;;;;;;12.70;71.27;94495.81;5005521;28;20025;-80
2023/04/17 02:35:07;;;;;;;19.08;10.93;;;;;;;12.54;71.39;94478.66;4999832;28;20125;-80
2023/04/17 02:37:33;;;;;;;17.88;9.88;;;;;;;12.17;71.75;94410.66;5006910;28;20033;-80
2023/04/17 02:39:58;;;;;;;14.77;9.45;;;;;;;12.01;71.86;94387.38;5020609;28;20038;-79
2023/04/17 02:42:23;;;;;;;19.15;9.48;;;;;;;12.41;72.34;94474.16;5013989;28;20030;-80
2023/04/17 02:44:49;;;;;;;16.63;10.32;;;;;;;12.05;71.94;94413.06;5028413;28;20107;-80
2023/04/17 02:47:14;;;;;;;18.77;11.05;;;;;;;12.37;72.22;94465.22;4999425;28;20025;-80
2023/04/17 02:49:40;;;;;;;18.08;10.20;;;;;;;11.68;72.16;94366.28;5006824;28;20565;-80
2023/04/17 02:52:06;;;;;;;18.95;10.93;;;;;;;12.56;72.09;94499.63;5014956;28;20025;-80
2023/04/17 02:54:32;;;;;;;17.98;9.65;;;;;;;12.42;72.44;94475.75;5021577;28;20120;-79
2023/04/17 02:56:57;;;;;;;16.30;10.57;;;;;;;12.22;72.36;94458.38;5005594;28;20524;-79
2023/04/17 02:59:26;;;;;;;20.10;9.25;;;;;;;12.34;73.04;94489.75;5014924;28;20029;-79
2023/04/17 03:01:52;;;;;;;21.90;9.52;;;;;;;12.19;72.45;94448.34;5011195;28;20044;-79
2023/04/17 03:04:17;;;;;;;22.45;10.15;;;;;;;11.88;72.53;94415.56;5016476;28;20034;-79
2023/04/17 03:06:42;;;;;;;14.88;8.57;;;;;;;12.38;72.47;94493.38;5002691;28;20027;-79
2023/04/17 03:09:11;;;;;;;14.30;8.55;;;;;;;11.58;73.70;94403.72;5015036;28;20061;-79
2023/04/17 03:11:36;;;;;;;16.70;8.88;;;;;;;11.20;73.39;94356.19;5033329;28;20040;-79
2023/04/17 03:14:02;;;;;;;17.20;9.02;;;;;;;11.60;73.30;94398.88;5028574;28;20026;-80
2023/04/17 03:16:27;;;;;;;18.90;9.15;;;;;;;12.38;72.76;94506.66;5008813;28;20037;-79
2023/04/17 03:18:53;;;;;;;12.45;8.23;;;;;;;12.42;72.53;94505.00;5012738;28;20030;-80
2023/04/17 03:21:19;;;;;;;11.23;7.32;;;;;;;12.44;72.48;94518.75;5011174;28;20392;-79
2023/04/17 03:23:45;;;;;;;14.43;7.78;;;;;;;12.36;72.22;94493.66;5005071;28;20029;-79
2023/04/17 03:26:10;;;;;;;9.55;7.22;;;;;;;12.25;72.11;94464.97;5013874;28;20644;-79
2023/04/17 03:28:35;;;;;;;14.57;7.85;;;;;;;12.51;72.05;94507.72;5032514;28;20029;-80
2023/04/17 03:31:01;;;;;;;17.98;7.47;;;;;;;12.25;71.83;94460.44;5015122;28;20479;-79
2023/04/17 03:33:26;;;;;;;16.50;6.55;;;;;;;12.38;71.95;94485.41;5015392;28;20028;-79
2023/04/17 03:35:52;;;;;;;23.13;6.85;;;;;;;12.27;71.51;94470.78;4998841;28;20030;-79
2023/04/17 03:38:17;;;;;;;10.95;6.00;;;;;;;12.37;71.93;94492.59;5012780;28;20459;-79
2023/04/17 03:40:44;;;;;;;14.15;6.95;;;;;;;12.09;71.07;94448.56;5029623;28;20033;-79
2023/04/17 03:43:09;;;;;;;12.23;5.80;;;;;;;11.89;71.70;94452.47;5032970;28;20466;-79
2023/04/17 03:45:35;;;;;;;12.02;6.63;;;;;;;11.94;72.35;94470.16;5005531;28;20120;-79
2023/04/17 03:48:01;;;;;;;15.05;6.10;;;;;;;12.09;72.62;94509.69;5012911;28;20037;-80
2023/04/17 03:50:26;;;;;;;11.05;6.38;;;;;;;12.19;71.40;94506.06;5026344;28;20108;-80
2023/04/17 03:52:51;;;;;;;13.75;6.40;;;;;;;12.03;71.94;94496.81;5014398;28;20029;-79
2023/04/17 03:55:18;;;;;;;24.45;6.45;;;;;;;11.79;71.82;94470.50;5019620;28;20111;-79
2023/04/17 03:57:43;;;;;;;18.38;7.15;;;;;;;11.88;71.29;94480.13;4994796;28;20048;-79
2023/04/17 04:00:09;;;;;;;15.85;6.53;;;;;;;11.64;71.31;94460.94;5024288;28;20025;-79
2023/04/17 04:02:35;;;;;;;13.93;6.10;;;;;;;11.84;71.55;94486.31;5000709;28;20030;-79
2023/04/17 04:05:01;;;;;;;15.57;6.75;;;;;;;12.13;71.23;94515.22;5025541;28;20034;-79
2023/04/17 04:07:27;;;;;;;15.23;6.75;;;;;;;12.06;71.23;94520.13;5014503;28;20050;-79
2023/04/17 04:09:52;;;;;;;18.02;6.35;;;;;;;11.60;71.49;94447.44;5010101;28;20520;-79
2023/04/17 04:12:18;;;;;;;13.98;6.60;;;;;;;11.68;70.94;94445.19;5012371;28;20034;-80
2023/04/17 04:14:43;;;;;;;14.55;6.25;;;;;;;12.02;71.00;94498.69;5000817;28;20029;-79
2023/04/17 04:17:08;;;;;;;11.95;6.93;;;;;;;11.98;70.91;94497.69;5013794;28;20473;-79
2023/04/17 04:19:34;;;;;;;22.45;7.20;;;;;;;12.21;70.41;94511.84;5014305;28;20025;-79
2023/04/17 04:22:00;;;;;;;15.25;6.40;;;;;;;11.92;70.56;94474.97;5008137;28;20032;-79
2023/04/17 04:24:25;;;;;;;16.65;5.88;;;;;;;12.08;70.48;94502.81;5021199;28;20055;-79
2023/04/17 04:26:51;;;;;;;8.98;5.63;;;;;;;11.96;70.37;94479.44;5014482;28;20057;-79
2023/04/17 04:29:16;;;;;;;10.73;6.18;;;;;;;12.16;70.55;94509.28;5002669;28;20022;-79
2023/04/17 04:31:45;;;;;;;10.98;6.20;;;;;;;12.13;70.46;94505.34;5023371;28;20033;-79
2023/04/17 04:34:12;;;;;;;13.35;6.25;;;;;;;12.15;70.08;94505.84;5018514;28;20037;-80
2023/04/17 04:36:48;;;;;;;22.25;6.85;;;;;;;12.01;70.80;94496.31;4986637;28;20038;-78
2023/04/17 04:39:19;;;;;;;20.33;7.13;;;;;;;11.87;70.09;94467.13;4998953;28;20196;-81
2023/04/17 04:41:49;;;;;;;12.83;6.50;;;;;;;12.15;70.23;94513.03;4998545;28;20440;-81
2023/04/17 04:44:18;;;;;;;12.82;7.05;;;;;;;12.16;69.96;94506.63;5020988;28;20284;-80
2023/04/17 04:46:44;;;;;;;8.90;6.13;;;;;;;12.13;70.09;94507.25;5018023;28;20029;-79
2023/04/17 04:49:10;;;;;;;15.73;7.65;;;;;;;11.90;70.20;94474.53;5017694;28;20079;-79
2023/04/17 04:51:35;;;;;;;13.45;7.25;;;;;;;12.32;70.00;94529.16;5017977;28;20030;-79
2023/04/17 04:54:01;;;;;;;13.73;7.70;;;;;;;12.20;69.90;94512.94;5035904;28;20476;-80
2023/04/17 04:56:27;;;;;;;14.20;7.63;;;;;;;12.35;69.75;94537.31;5017436;28;20035;-80
2023/04/17 04:58:52;;;;;;;16.27;8.27;;;;;;;12.38;69.75;94531.38;5004919;28;20443;-80
2023/04/17 05:01:18;;;;;;;14.20;7.55;;;;;;;12.31;69.56;94512.41;4997895;28;20594;-80
2023/04/17 05:03:44;;;;;;;15.30;6.72;;;;;;;12.22;69.37;94492.13;5015641;28;20041;-81
2023/04/17 05:06:10;;;;;;;12.60;6.80;;;;;;;12.44;69.36;94537.38;4993822;28;20036;-80
2023/04/17 05:08:36;;;;;;;16.02;6.40;;;;;;;12.53;69.17;94529.47;5015422;28;20089;-80
2023/04/17 05:11:02;;;;;;;18.45;7.70;;;;;;;12.28;69.07;94497.03;5014999;28;20037;-80
2023/04/17 05:13:29;;;;;;;13.10;6.65;;;;;;;12.35;69.18;94486.00;5015125;28;20103;-80
2023/04/17 05:15:54;;;;;;;19.67;7.13;;;;;;;12.38;68.81;94499.47;4997387;28;20033;-81
2023/04/17 05:18:20;;;;;;;17.17;7.18;;;;;;;12.67;68.91;94532.88;5018897;28;20033;-80
2023/04/17 05:20:46;;;;;;;17.15;7.07;;;;;;;12.23;68.70;94459.16;5030402;28;20480;-80
2023/04/17 05:23:11;;;;;;;20.17;7.82;;;;;;;12.74;68.66;94543.88;4998166;28;20033;-80
2023/04/17 05:25:37;;;;;;;24.85;7.53;;;;;;;12.44;68.74;94489.50;4997884;28;20029;-81
2023/04/17 05:28:02;;;;;;;18.08;6.70;;;;;;;12.34;68.17;94458.63;5005738;28;20030;-80
2023/04/17 05:30:28;;;;;;;17.95;6.40;;;;;;;12.54;67.90;94488.50;5035216;28;20041;-80
2023/04/17 05:32:53;;;;;;;26.20;6.45;;;;;;;12.33;67.70;94448.31;5035349;28;20046;-80
2023/04/17 05:35:19;;;;;;;10.48;5.43;;;;;;;12.76;66.99;94497.25;5034953;28;20396;-81
2023/04/17 05:37:44;;;;;;;14.20;5.88;;;;;;;12.05;67.08;94415.72;5016787;28;20029;-81
2023/04/17 05:40:10;;;;;;;18.02;6.57;;;;;;;12.92;66.65;94529.63;5003867;28;20409;-80
2023/04/17 05:42:37;;;;;;;14.98;6.97;;;;;;;12.91;66.60;94525.38;5011356;28;20119;-80
2023/04/17 05:45:03;;;;;;;18.23;5.65;;;;;;;12.99;66.29;94545.94;5016934;28;20483;-80
2023/04/17 05:47:29;;;;;;;13.48;5.97;;;;;;;12.90;66.48;94538.97;5035050;28;20502;-80
2023/04/17 05:49:57;;;;;;;12.98;6.40;;;;;;;12.77;65.94;94500.72;5017129;28;20045;-81
2023/04/17 05:52:23;;;;;;;19.98;5.65;;;;;;;12.86;65.73;94514.88;5035180;28;20468;-81
2023/04/17 05:54:48;;;;;;;12.02;6.18;;;;;;;12.81;65.47;94490.25;5034988;28;20436;-80
2023/04/17 05:57:14;;;;;;;16.23;6.00;;;;;;;12.92;65.68;94508.31;5033569;28;20048;-81
2023/04/17 05:59:39;;;;;;;16.70;6.25;;;;;;;12.89;65.37;94500.94;5016662;28;20033;-80
2023/04/17 06:02:06;;;;;;;21.08;6.30;;;;;;;13.10;64.94;94525.19;5030600;28;20501;-80
2023/04/17 06:04:32;;;;;;;13.35;5.55;;;;;;;13.25;64.91;94556.00;4997239;28;20029;-80
2023/04/17 06:06:57;;;;;;;18.85;5.95;;;;;;;13.03;65.27;94546.13;5002817;28;20060;-80
2023/04/17 06:09:22;;;;;;;22.60;6.22;;;;;;;12.72;65.59;94492.84;5034027;28;20033;-80
2023/04/17 06:11:48;;;;;;;15.77;5.30;;;;;;;13.10;65.35;94549.16;5034484;28;20033;-80
2023/04/17 06:14:13;;;;;;;19.30;6.22;;;;;;;12.85;65.12;94496.53;5007933;28;20033;-80
2023/04/17 06:16:39;;;;;;;16.52;6.13;;;;;;;12.93;65.42;94517.88;5006983;28;20128;-80
2023/04/17 06:19:04;;;;;;;23.77;7.07;;;;;;;12.67;64.67;94461.81;5016526;28;20539;-81
2023/04/17 06:21:31;;;;;;;19.58;5.70;;;;;;;12.79;64.54;94477.25;5034712;28;20033;-80
2023/04/17 06:23:56;;;;;;;16.30;5.95;;;;;;;12.69;64.35;94453.53;5017158;28;20040;-80
2023/04/17 06:26:22;;;;;;;18.10;5.70;;;;;;;13.50;64.17;94566.00;5020529;28;20030;-80
2023/04/17 06:28:47;;;;;;;18.90;6.65;;;;;;;13.59;63.94;94566.03;5013258;28;20037;-81
2023/04/17 06:31:13;;;;;;;18.15;6.22;;;;;;;12.93;64.13;94466.53;5017203;28;20034;-80
2023/04/17 06:33:39;;;;;;;21.05;6.95;;;;;;;13.64;64.29;94574.69;5015976;28;20033;-81
2023/04/17 06:36:05;;;;;;;13.05;6.38;;;;;;;13.26;63.52;94499.78;5018520;28;20065;-80
2023/04/17 06:38:30;;;;;;;13.43;5.93;;;;;;;13.05;64.29;94485.38;5014983;28;20030;-80
2023/04/17 06:40:56;;;;;;;15.63;6.38;;;;;;;13.39;63.60;94516.75;4997401;28;20119;-80
2023/04/17 06:43:21;;;;;;;13.38;7.00;;;;;;;13.86;63.53;94582.63;5013781;28;20026;-81
2023/04/17 06:45:47;;;;;;;17.30;6.57;;;;;;;13.43;63.46;94499.84;5016976;28;20483;-80
2023/04/17 06:48:12;;;;;;;17.95;6.88;;;;;;;13.68;62.99;94537.56;5015195;28;20033;-81
2023/04/17 06:50:38;;;;;;;14.63;6.53;;;;;;;13.43;63.62;94515.81;5034263;28;20040;-80
2023/04/17 06:53:03;;;;;;;21.90;6.20;;;;;;;13.89;62.57;94555.34;5016484;28;20029;-81
2023/04/17 06:55:29;;;;;;;24.52;6.55;;;;;;;13.86;62.99;94555.97;5016208;28;20029;-80
2023/04/17 06:57:54;;;;;;;13.65;5.85;;;;;;;13.94;63.34;94558.97;5016225;28;20112;-80
2023/04/17 07:00:20;;;;;;;15.65;6.30;;;;;;;13.97;63.73;94580.44;5015764;28;20101;-81
2023/04/17 07:02:46;;;;;;;12.88;6.85;;;;;;;13.58;63.55;94495.22;5000467;28;20531;-81
2023/04/17 07:05:12;;;;;;;17.20;7.18;;;;;;;14.14;62.77;94577.06;5011967;28;20090;-81
2023/04/17 07:07:38;;;;;;;23.17;7.30;;;;;;;14.26;62.13;94578.06;5014648;28;20041;-81
2023/04/17 07:10:05;;;;;;;16.20;6.90;;;;;;;14.39;62.06;94573.69;5014930;28;20064;-81
2023/04/17 07:12:30;;;;;;;25.92;7.55;;;;;;;14.14;62.28;94537.84;4998805;28;20073;-81
2023/04/17 07:14:56;;;;;;;23.45;8.00;;;;;;;13.80;62.40;94471.16;5033198;28;20087;-81
2023/04/17 07:17:21;;;;;;;17.73;7.63;;;;;;;14.46;61.86;94579.38;5015669;28;20578;-80
2023/04/17 07:19:47;;;;;;;21.83;7.60;;;;;;;14.51;60.71;94586.41;5033950;28;20032;-80
2023/04/17 07:22:13;;;;;;;15.73;7.57;;;;;;;14.30;60.73;94562.19;5015425;28;20052;-81
2023/04/17 07:24:38;;;;;;;17.13;6.63;;;;;;;14.34;60.85;94555.16;5033404;28;20036;-80
2023/04/17 07:27:05;;;;;;;17.33;7.35;;;;;;;14.57;60.79;94585.19;5023443;28;20440;-81
2023/04/17 07:29:31;;;;;;;18.85;9.70;;;;;;;14.32;60.80;94529.88;4996072;28;20481;-81
2023/04/17 07:31:56;;;;;;;15.48;7.55;;;;;;;14.85;60.10;94583.78;5013372;28;20034;-80
2023/04/17 07:34:24;;;;;;;21.35;11.15;;;;;;;14.84;59.46;94568.88;4995403;28;20480;-80
2023/04/17 07:36:51;;;;;;;16.35;7.32;;;;;;;14.18;59.32;94509.47;5013140;28;20044;-80
2023/04/17 07:39:17;;;;;;;18.85;6.88;;;;;;;14.69;59.61;94582.69;5010606;28;20041;-81
2023/04/17 07:41:44;;;;;;;14.70;7.13;;;;;;;14.65;59.11;94560.38;5014800;28;20492;-80
2023/04/17 07:44:09;;;;;;;14.90;7.35;;;;;;;14.72;59.19;94550.03;5032796;28;20617;-81
2023/04/17 07:46:35;;;;;;;13.48;7.68;;;;;;;14.97;58.59;94567.91;4996731;28;20029;-81
2023/04/17 07:49:00;;;;;;;11.90;7.00;;;;;;;14.76;58.64;94537.63;5013245;28;20064;-81
2023/04/17 07:51:26;;;;;;;15.43;7.05;;;;;;;14.68;59.81;94536.53;4995391;28;20081;-81
2023/04/17 07:53:52;;;;;;;15.27;8.02;;;;;;;14.80;60.27;94567.91;4999501;28;20040;-81
2023/04/17 07:56:17;;;;;;;12.50;7.18;;;;;;;14.95;59.34;94566.69;5014958;28;20029;-81
2023/04/17 07:58:43;;;;;;;20.52;8.70;;;;;;;14.82;59.38;94546.25;5032737;28;20033;-80
2023/04/17 08:01:09;;;;;;;13.93;6.80;;;;;;;14.79;59.19;94549.56;5005437;28;20409;-81
2023/04/17 08:03:35;;;;;;;13.68;7.03;;;;;;;14.93;58.91;94553.63;4993010;28;20040;-80
2023/04/17 08:06:00;;;;;;;18.50;7.43;;;;;;;14.78;59.52;94562.13;5010763;28;20455;-81
2023/04/17 08:08:26;;;;;;;22.15;7.90;;;;;;;14.86;58.12;94552.53;5000545;28;20475;-81
2023/04/17 08:10:51;;;;;;;19.83;7.93;;;;;;;15.00;58.09;94567.28;5033068;28;20029;-81
2023/04/17 08:13:17;;;;;;;19.80;7.68;;;;;;;15.16;57.94;94580.16;5014187;28;20070;-81
2023/04/17 08:15:44;;;;;;;17.83;6.88;;;;;;;15.02;58.55;94558.97;5033031;28;20034;-80
2023/04/17 08:18:09;;;;;;;17.10;7.90;;;;;;;15.23;61.14;94578.59;5032328;28;20031;-81
2023/04/17 08:20:36;;;;;;;17.13;7.65;;;;;;;15.47;60.36;94582.63;5014143;28;20567;-81
2023/04/17 08:23:03;;;;;;;12.93;7.45;;;;;;;15.31;60.82;94567.09;4996630;28;20044;-81
2023/04/17 08:25:29;;;;;;;17.50;7.82;;;;;;;15.17;62.40;94560.38;5031785;28;20061;-81
2023/04/17 08:27:54;;;;;;;15.02;7.90;;;;;;;15.45;62.75;94593.63;5014331;28;20491;-81
2023/04/17 08:30:20;;;;;;;22.33;8.40;;;;;;;15.04;64.81;94554.09;5014455;28;20460;-81
2023/04/17 08:32:47;;;;;;;14.27;7.72;;;;;;;14.62;64.52;94521.78;5014682;28;20022;-81
2023/04/17 08:35:14;;;;;;;16.30;6.70;;;;;;;14.88;64.46;94596.50;5014136;28;20423;-81
2023/04/17 08:37:41;;;;;;;16.80;8.57;;;;;;;14.65;67.34;94590.50;5014227;28;20471;-81
2023/04/17 08:40:12;;;;;;;22.08;7.90;;;;;;;14.67;67.99;94596.34;5014239;28;20032;-80
2023/04/17 08:42:40;;;;;;;20.23;8.70;;;;;;;14.66;68.90;94584.09;5031947;28;20055;-81
2023/04/17 08:45:09;;;;;;;17.77;7.25;;;;;;;14.50;69.01;94568.84;5031834;28;20041;-81
2023/04/17 08:47:37;;;;;;;28.02;9.38;;;;;;;14.46;69.70;94525.22;5014175;28;20372;-81
2023/04/17 08:50:14;;;;;;;19.23;8.10;;;;;;;14.85;70.25;94578.44;5017920;28;20477;-81
2023/04/17 08:52:41;;;;;;;18.17;8.50;;;;;;;15.10;70.77;94582.22;4994314;28;20030;-81
2023/04/17 08:55:09;;;;;;;18.60;7.88;;;;;;;14.88;70.53;94585.03;4996528;28;20025;-81
2023/04/17 08:57:36;;;;;;;14.60;6.85;;;;;;;14.99;68.57;94591.63;4994234;28;20030;-81
2023/04/17 09:00:10;;;;;;;16.17;9.35;;;;;;;15.02;70.45;94593.69;5013526;28;20029;-81
2023/04/17 09:02:53;;;;;;;20.30;9.80;;;;;;;14.21;69.18;94476.84;5013696;28;20025;-81
2023/04/17 09:05:20;;;;;;;19.67;8.10;;;;;;;15.21;68.81;94591.47;5013934;28;20052;-81
2023/04/17 09:07:46;;;;;;;20.13;8.20;;;;;;;15.11;68.31;94561.63;5013448;28;20092;-81
2023/04/17 09:10:12;;;;;;;19.92;8.23;;;;;;;14.95;66.07;94554.09;5012926;28;20037;-81
2023/04/17 09:12:40;;;;;;;15.38;7.75;;;;;;;14.84;65.05;94536.84;5031478;28;20043;-81
2023/04/17 09:15:16;;;;;;;21.73;7.95;;;;;;;14.69;64.77;94521.28;5014386;28;20033;-81
2023/04/17 09:17:41;;;;;;;21.60;7.95;;;;;;;14.97;66.01;94551.91;4981624;28;20048;-79
2023/04/17 09:20:10;;;;;;;21.80;8.30;;;;;;;15.29;66.18;94589.88;5001640;28;20693;-81
2023/04/17 09:22:39;;;;;;;16.95;7.70;;;;;;;14.77;64.58;94557.09;5035555;28;20439;-81
2023/04/17 09:25:16;;;;;;;20.67;8.95;;;;;;;14.57;65.49;94588.63;5017227;28;20107;-81
2023/04/17 09:27:42;;;;;;;14.95;8.13;;;;;;;14.75;65.48;94573.41;5001226;28;20022;-81
2023/04/17 09:30:08;;;;;;;20.95;9.00;;;;;;;14.64;66.37;94526.81;5017833;28;20026;-81
2023/04/17 09:32:33;;;;;;;16.92;9.35;;;;;;;14.45;66.84;94473.75;5018054;28;20025;-81
2023/04/17 09:35:02;;;;;;;23.10;9.90;;;;;;;15.23;66.40;94594.59;5035357;28;20025;-81
2023/04/17 09:37:50;;;;;;;23.77;9.68;;;;;;;15.09;66.48;94602.00;5035087;28;20033;-80
2023/04/17 09:40:17;;;;;;;21.35;9.60;;;;;;;14.85;69.09;94601.69;5016558;28;20037;-81
2023/04/17 09:43:06;;;;;;;14.93;8.93;;;;;;;14.37;72.20;94572.41;5034398;28;20086;-81
2023/04/17 09:45:38;;;;;;;20.50;9.93;;;;;;;14.49;70.98;94583.28;5016365;28;20038;-80
2023/04/17 09:48:10;;;;;;;17.13;10.00;;;;;;;14.57;72.38;94591.28;5034501;28;20401;-81
2023/04/17 09:50:36;;;;;;;17.77;9.57;;;;;;;14.50;72.67;94592.84;5033954;28;20064;-81
2023/04/17 09:53:03;;;;;;;20.13;9.88;;;;;;;14.55;72.46;94590.84;5016889;28;20033;-81
2023/04/17 09:55:31;;;;;;;17.10;9.10;;;;;;;14.08;70.43;94551.63;5016812;28;20054;-81
2023/04/17 09:57:58;;;;;;;20.73;9.40;;;;;;;14.32;69.83;94584.00;5034335;28;20087;-81
2023/04/17 10:00:26;;;;;;;20.83;10.68;;;;;;;14.45;71.70;94587.66;5022802;28;20469;-81
2023/04/17 10:02:53;;;;;;;19.05;10.23;;;;;;;14.56;71.11;94588.97;4997064;28;20033;-80
2023/04/17 10:05:24;;;;;;;17.27;8.77;;;;;;;14.61;70.01;94591.47;5014383;28;20431;-81
2023/04/17 10:07:50;;;;;;;16.05;7.78;;;;;;;13.65;68.44;94442.25;4997004;28;20054;-81
2023/04/17 10:10:23;;;;;;;13.35;7.38;;;;;;;14.63;67.64;94581.28;5013978;28;20044;-81
2023/04/17 10:12:50;;;;;;;15.88;7.50;;;;;;;14.73;67.80;94578.28;5014058;28;20517;-81
2023/04/17 10:15:17;;;;;;;26.70;11.35;;;;;;;14.15;67.77;94474.63;4997313;28;20029;-81
2023/04/17 10:17:43;;;;;;;26.25;12.35;;;;;;;15.00;68.08;94583.31;4996966;28;20087;-81
2023/04/17 10:20:18;;;;;;;14.85;7.88;;;;;;;15.19;66.46;94569.63;5002115;28;20442;-81
2023/04/17 10:22:48;;;;;;;9.80;7.13;;;;;;;15.39;65.91;94576.19;5016598;28;20408;-81
2023/04/17 10:25:13;;;;;;;15.30;6.57;;;;;;;15.49;64.58;94581.19;5016320;28;20132;-81
2023/04/17 10:27:41;;;;;;;14.90;6.03;;;;;;;15.57;63.22;94569.72;5015861;28;20042;-80
2023/04/17 10:30:11;;;;;;;16.48;6.97;;;;;;;15.66;63.56;94565.13;5033780;28;20396;-81
2023/04/17 10:32:40;;;;;;;13.23;5.78;;;;;;;15.73;60.27;94564.63;5016514;28;20029;-81
2023/04/17 10:35:14;;;;;;;13.00;5.78;;;;;;;15.88;61.72;94564.09;5033697;28;20476;-81
2023/04/17 10:37:46;;;;;;;12.73;6.88;;;;;;;15.89;63.29;94562.22;5034262;28;20416;-81
2023/04/17 10:40:21;;;;;;;10.02;7.05;;;;;;;16.09;65.54;94542.78;5033819;28;20044;-81
2023/04/17 10:43:06;;;;;;;12.98;8.40;;;;;;;16.70;68.46;94557.38;5016399;28;20385;-81
2023/04/17 10:45:51;;;;;;;19.60;9.55;;;;;;;17.02;69.23;94557.75;5016214;28;20030;-81
2023/04/17 10:48:50;;;;;;;11.98;8.90;;;;;;;16.82;66.51;94498.53;5016089;28;20512;-81
2023/04/17 10:53:51;;;;;;;;;;;;;;;17.09;58.31;94553.41;5033979;28;20056;-81
2023/04/17 10:56:25;;;;;;;12.82;8.48;;;;;;;17.06;59.74;94521.94;5014336;28;20326;-81
2023/04/17 10:59:06;;;;;;;17.88;8.93;;;;;;;17.23;56.00;94556.63;5018334;28;20103;-81
2023/04/17 11:01:47;;;;;;;23.02;9.57;;;;;;;16.92;57.82;94550.91;5016462;28;20508;-81
2023/04/17 11:04:22;;;;;;;14.73;8.63;;;;;;;16.90;58.15;94550.44;5016956;28;20061;-81
2023/04/17 11:06:51;;;;;;;15.48;8.93;;;;;;;16.47;57.61;94529.34;5016185;28;20033;-81
2023/04/17 11:09:19;;;;;;;12.00;8.38;;;;;;;16.48;57.07;94531.66;5015610;28;20064;-81
2023/04/17 11:11:45;;;;;;;17.80;8.05;;;;;;;16.41;57.54;94503.84;5015304;28;20085;-81
2023/04/17 11:14:13;;;;;;;10.00;7.53;;;;;;;16.55;56.90;94549.91;4999228;28;20041;-81
2023/04/17 11:16:41;;;;;;;11.68;7.50;;;;;;;15.83;56.90;94430.63;4997519;28;20069;-80
2023/04/17 11:19:08;;;;;;;13.60;7.70;;;;;;;16.04;55.84;94466.19;4996032;28;20029;-81
2023/04/17 11:21:38;;;;;;;14.93;9.43;;;;;;;16.10;57.74;94501.53;5033538;28;20037;-81
2023/04/17 11:24:04;;;;;;;13.80;8.90;;;;;;;15.78;56.92;94521.72;5015412;28;20021;-81
2023/04/17 11:26:29;;;;;;;18.10;10.10;;;;;;;15.88;57.02;94534.69;5010946;28;20022;-81